Celebrity Constellation — 9HJB9 — position and weather

sailwx.info

Track history (hours):
 
Tides and Currents Weather Stations Pressure Air Temp Water Temp Dewpoint Dewpoint Depression Visibility Wind Speed Wind Dir Waves Ship Positions

Celebrity Constellation

Last reported at 2017-May-28 10:29 UTC. Time now 2017-May-28 12:23 UTC.
Position N 41°21' E 002°11'.

Length 294 m; draft 8.3 m.

Type: Passenger vessel. MMSI: 249046000.

Date/timePositionNaut miles runAvg speedWind from/ knotsBaromVisibWave heightAir tempDewpointWater temp
2017-May-28 10:29N 41°21' E 002°11'0 0.0
2017-May-28 09:32N 41°21' E 002°11'0 0.0
2017-May-28 09:30N 41°21' E 002°11'0 0.0
2017-May-28 09:00N 41°21' E 002°11'0 0.0
2017-May-28 08:30N 41°21' E 002°11'0 0.0
2017-May-28 08:00N 41°21' E 002°11'0 0.0
2017-May-28 07:30N 41°21' E 002°11'0 0.0
2017-May-28 07:01N 41°21' E 002°11'0 0.0
2017-May-28 06:30N 41°21' E 002°11'0 0.0
2017-May-28 06:00N 41°21' E 002°11'0 0.0
2017-May-28 00:03N 41°21' E 002°11'0 0.0
2017-May-28 00:00N 41°21' E 002°11'0 0.0
2017-May-27 22:59N 41°21' E 002°11'0 0.0
2017-May-27 22:12N 41°21' E 002°11'0 0.2
2017-May-27 22:00N 41°21' E 002°11'1 3.0
2017-May-27 21:30N 41°20' E 002°10'5 9.6
2017-May-27 21:00N 41°16' E 002°14'816.1
2017-May-27 20:30N 41°16' E 002°25'815.9
2017-May-27 20:00N 41°15' E 002°35'3 6.5
2017-May-27 19:30N 41°11' E 002°35'4 8.9
2017-May-27 19:00N 41°07' E 002°33'2 4.4
2017-May-27 18:30N 41°05' E 002°34'5 9.7
2017-May-27 17:59N 41°10' E 002°34'4 7.9
2017-May-27 17:30N 41°10' E 002°29'5 9.3
2017-May-27 17:00N 41°07' E 002°24'3 6.4
2017-May-27 16:29N 41°06' E 002°20'4 7.3
2017-May-27 16:00N 41°04' E 002°16'5 9.2
2017-May-27 15:29N 41°05' E 002°22'612.5
2017-May-27 15:00N 41°07' E 002°30'1514.5
2017-May-27 14:00N 41°12' E 002°48'232.2 060 / 141019.010.8 21.019.519.0
2017-May-27 13:56N 41°13' E 002°50'615.0
2017-May-27 13:30N 41°18' E 002°44'510.1
2017-May-27 13:00N 41°17' E 002°38'4 7.8
2017-May-27 12:30N 41°17' E 002°43'2 3.4
2017-May-27 12:00N 41°19' E 002°43'3 6.6
2017-May-27 11:30N 41°17' E 002°39'1 2.0
2017-May-27 11:01N 41°17' E 002°38'0 0.2
2017-May-27 10:29N 41°17' E 002°38'1 1.3
2017-May-27 10:00N 41°17' E 002°37'5461.1
2017-May-27 10:00N 41°12' E 002°36'4 7.1 340 / 81020.0 5.4 21.018.019.0
2017-May-27 09:21N 41°16' E 002°37'0 0.7
2017-May-27 09:00N 41°16' E 002°37'0 0.8
2017-May-27 08:30N 41°16' E 002°36'0 0.9
2017-May-27 08:00N 41°15' E 002°36'1 1.3
2017-May-27 07:30N 41°15' E 002°35'1 1.6
2017-May-27 06:46N 41°14' E 002°34'1 1.7
2017-May-27 06:26N 41°14' E 002°34'0 0.9
2017-May-27 05:58N 41°13' E 002°34'0 0.7
2017-May-27 05:27N 41°14' E 002°34'1 1.5
2017-May-27 04:57N 41°14' E 002°34'1 1.6
2017-May-27 04:30N 41°14' E 002°33'3 6.1
2017-May-27 03:59N 41°12' E 002°30'3 6.5
2017-May-27 03:30N 41°10' E 002°26'3 6.7
2017-May-27 03:00N 41°08' E 002°23'4 7.3
2017-May-27 02:30N 41°06' E 002°19'3 5.4
2017-May-27 02:00N 41°04' E 002°16'5324.8
2017-May-27 02:00N 41°00' E 002°12'3 6.4 040 / 121018.0 5.4 19.017.519.0
2017-May-27 01:30N 41°03' E 002°13'3 5.3
2017-May-27 01:00N 41°01' E 002°10'3 5.2
2017-May-27 00:30N 41°00' E 002°07'2 5.0
2017-May-27 00:00N 40°59' E 002°05'3 5.3
2017-May-26 23:30N 40°57' E 002°02'4 7.5
2017-May-26 23:00N 40°55' E 001°58'4 7.3
2017-May-26 22:30N 40°59' E 001°56'714.3
2017-May-26 22:00N 41°01' E 002°05'713.1
2017-May-26 21:30N 41°03' E 002°13'5 9.1
2017-May-26 21:00N 41°06' E 002°18'4 7.8
2017-May-26 20:29N 41°09' E 002°22'5 9.9
2017-May-26 20:00N 41°14' E 002°21'4 8.9
2017-May-26 19:31N 41°17' E 002°17'3 6.2
2017-May-26 19:00N 41°18' E 002°13'612.3
2017-May-26 18:31N 41°17' E 002°21'611.9
2017-May-26 18:00N 41°16' E 002°29'917.4
2017-May-26 17:30N 41°14' E 002°40'714.2
2017-May-26 17:00N 41°14' E 002°30'1122.3
2017-May-26 16:30N 41°07' E 002°19'1019.2
2017-May-26 16:00N 41°01' E 002°09'815.5
2017-May-26 15:30N 41°04' E 002°19'1122.5
2017-May-26 15:00N 41°10' E 002°31'7 7.3
2017-May-26 14:00N 41°17' E 002°35'5368.4
2017-May-26 14:00N 41°12' E 002°36'917.9 050 / 151017.010.8 20.016.919.0
2017-May-26 13:30N 41°09' E 002°25'1121.7
2017-May-26 13:00N 40°59' E 002°19'1121.1
2017-May-26 12:30N 40°52' E 002°08'917.7
2017-May-26 12:00N 40°56' E 001°58'1121.4
2017-May-26 11:30N 41°02' E 002°10'1223.1
2017-May-26 11:00N 41°05' E 002°25'1222.9
2017-May-26 10:30N 41°07' E 002°40'1019.5
2017-May-26 10:00N 41°16' E 002°44'918.1
2017-May-26 09:30N 41°12' E 002°33'1121.7
2017-May-26 09:00N 41°02' E 002°27'1122.0
2017-May-26 08:30N 40°53' E 002°19'1021.0
2017-May-26 08:00N 40°47' E 002°08'1019.8
2017-May-26 07:30N 40°53' E 001°57'1020.2
2017-May-26 07:00N 41°01' E 002°06'816.5
2017-May-26 06:30N 41°03' E 002°16'4 7.4
2017-May-26 06:00N 41°05' E 002°20'4 7.4
2017-May-26 05:30N 41°08' E 002°24'4 7.5
2017-May-26 05:00N 41°10' E 002°28'611.8
2017-May-26 04:28N 41°13' E 002°36'5 4.5
2017-May-26 03:22N 41°17' E 002°38'4 9.9
2017-May-26 03:00N 41°15' E 002°35'3 5.9
2017-May-26 02:29N 41°13' E 002°32'4 8.9
2017-May-26 02:00N 41°10' E 002°27'51227.3
2017-May-26 02:00N 41°06' E 002°24'2 3.5 230 / 101015.0 5.4 19.017.519.0
2017-May-26 01:30N 41°06' E 002°22'5 9.4
2017-May-26 01:00N 41°04' E 002°16'510.4
2017-May-26 00:30N 41°02' E 002°10'5 9.6
2017-May-26 00:00N 40°60' E 002°04'5 9.1
2017-May-25 23:30N 40°57' E 001°60'4 7.0
2017-May-25 23:00N 40°55' E 001°56'2 4.8
2017-May-25 22:30N 40°57' E 001°57'5 9.5
2017-May-25 22:00N 40°60' E 002°02'714.0
2017-May-25 21:30N 41°02' E 002°11'714.1
2017-May-25 21:00N 41°05' E 002°19'714.6
2017-May-25 20:30N 41°11' E 002°24'611.5
2017-May-25 20:00N 41°16' E 002°27'4 8.3
2017-May-25 19:31N 41°17' E 002°33'4 7.0
2017-May-25 19:00N 41°15' E 002°29'4 8.8
2017-May-25 18:31N 41°15' E 002°23'4 8.4
2017-May-25 18:00N 41°14' E 002°17'4 7.9
2017-May-25 17:31N 41°14' E 002°12'4 8.5
2017-May-25 17:00N 41°18' E 002°10'2 4.6
2017-May-25 16:30N 41°21' E 002°10'1 1.0
2017-May-25 15:42N 41°22' E 002°11'0 0.0
2017-May-25 15:30N 41°22' E 002°11'0 0.0
2017-May-25 14:42N 41°22' E 002°11'0 0.0
2017-May-25 14:30N 41°22' E 002°11'1 0.6
2017-May-25 13:30N 41°21' E 002°10'4 7.2
2017-May-25 13:00N 41°17' E 002°11'3 5.2
2017-May-25 12:31N 41°16' E 002°14'5 9.3
2017-May-25 12:00N 41°17' E 002°20'5 9.5
2017-May-25 11:30N 41°17' E 002°27'5 9.4
2017-May-25 11:00N 41°17' E 002°33'2 4.8
2017-May-25 10:30N 41°17' E 002°36'2 3.2
2017-May-25 10:00N 41°17' E 002°38'1 2.5
2017-May-25 09:30N 41°17' E 002°40'4 7.0
2017-May-25 09:00N 41°18' E 002°44'5 9.8
2017-May-25 08:30N 41°20' E 002°50'510.2
2017-May-25 08:00N 41°21' E 002°57'510.0
2017-May-25 07:30N 41°23' E 003°03'510.2
2017-May-25 07:00N 41°25' E 003°09'510.2
2017-May-25 06:31N 41°26' E 003°16'510.0
2017-May-25 06:00N 41°27' E 003°22'5 9.8
2017-May-25 05:29N 41°30' E 003°28'510.2
2017-May-25 05:00N 41°34' E 003°32'510.1
2017-May-25 04:29N 41°38' E 003°36'6 9.8
2017-May-25 03:53N 41°43' E 003°41'15 7.7
2017-May-25 02:00N 41°54' E 003°54'4410.5 270 / 111016.010.8 19.017.518.0
2017-May-24 21:49N 42°28' E 004°32'4 9.3
2017-May-24 21:24N 42°31' E 004°35'4 9.4
2017-May-24 21:00N 42°34' E 004°38'5 9.3
2017-May-24 20:29N 42°37' E 004°43'5 9.5
2017-May-24 20:00N 42°41' E 004°47'5 9.6
2017-May-24 19:29N 42°45' E 004°51'5 9.5
2017-May-24 19:00N 42°48' E 004°56'5 9.3
2017-May-24 18:30N 42°51' E 004°60'3 5.4
2017-May-24 17:57N 42°54' E 005°03'2 3.9
2017-May-24 17:30N 42°55' E 005°04'510.2
2017-May-24 17:00N 42°59' E 005°08'612.1
2017-May-24 16:30N 43°05' E 005°09'611.4
2017-May-24 16:01N 43°11' E 005°09'611.1
2017-May-24 15:31N 43°16' E 005°10'3 6.4
2017-May-24 15:01N 43°18' E 005°13'1 2.3
2017-May-24 14:31N 43°19' E 005°15'4 0.2
2017-May-23 17:45N 43°21' E 005°20'0 0.0
2017-May-23 11:03N 43°21' E 005°20'0 0.0
2017-May-23 10:39N 43°21' E 005°20'0 0.0
2017-May-23 05:39N 43°21' E 005°20'0 0.0
2017-May-23 05:15N 43°21' E 005°20'0 0.0
2017-May-22 23:51N 43°21' E 005°20'0 0.0
2017-May-22 21:03N 43°21' E 005°20'0 0.0
2017-May-22 20:39N 43°21' E 005°20'0 0.0
2017-May-22 18:51N 43°21' E 005°20'0 0.0
2017-May-22 18:27N 43°21' E 005°20'0 0.0
2017-May-22 17:51N 43°21' E 005°20'0 0.0
2017-May-22 16:39N 43°21' E 005°20'0 0.0
2017-May-22 16:27N 43°21' E 005°20'0 0.0
2017-May-22 15:45N 43°21' E 005°20'0 0.0
2017-May-22 15:30N 43°21' E 005°20'0 0.0
2017-May-22 15:00N 43°21' E 005°20'0 0.0
2017-May-22 13:57N 43°21' E 005°20'0 0.0
2017-May-22 13:03N 43°21' E 005°20'0 0.0
2017-May-22 13:00N 43°21' E 005°20'0 0.0
2017-May-22 12:00N 43°21' E 005°20'0 0.0
2017-May-22 11:30N 43°21' E 005°20'0 0.0
2017-May-22 11:00N 43°21' E 005°20'0 0.0
2017-May-22 10:18N 43°21' E 005°20'0 0.0
2017-May-22 09:33N 43°21' E 005°20'0 0.0
2017-May-22 09:30N 43°21' E 005°20'0 0.0
2017-May-22 08:51N 43°21' E 005°20'0 0.0
2017-May-22 08:21N 43°21' E 005°20'0 0.0
2017-May-22 07:54N 43°21' E 005°20'0 0.0
2017-May-22 06:39N 43°21' E 005°20'0 0.0
2017-May-22 06:24N 43°21' E 005°20'0 0.0
2017-May-22 05:31N 43°21' E 005°20'0 0.0
2017-May-22 05:01N 43°21' E 005°20'0 0.0
2017-May-22 04:46N 43°21' E 005°20'0 0.0
2017-May-22 04:19N 43°21' E 005°20'0 0.0
2017-May-22 03:52N 43°21' E 005°20'0 0.0
2017-May-22 03:22N 43°21' E 005°20'0 0.0
2017-May-22 02:52N 43°21' E 005°20'0 0.0
2017-May-22 02:22N 43°21' E 005°20'0 0.0
2017-May-22 01:52N 43°21' E 005°20'0 0.0
2017-May-22 01:25N 43°21' E 005°20'0 0.0
2017-May-22 00:55N 43°21' E 005°20'0 0.0
2017-May-22 00:25N 43°21' E 005°20'0 0.0
2017-May-21 21:37N 43°21' E 005°20'0 0.0
2017-May-21 21:13N 43°21' E 005°20'0 0.0
2017-May-21 20:10N 43°21' E 005°20'0 0.0
2017-May-21 19:15N 43°21' E 005°20'0 0.0
2017-May-21 18:57N 43°21' E 005°20'0 0.0
2017-May-21 18:27N 43°21' E 005°20'0 0.0
2017-May-21 17:57N 43°21' E 005°20'0 0.0
2017-May-21 17:30N 43°21' E 005°20'0 0.0
2017-May-21 16:33N 43°21' E 005°20'0 0.0
2017-May-21 16:27N 43°21' E 005°20'0 0.0
2017-May-21 15:57N 43°21' E 005°20'0 0.0
2017-May-21 15:15N 43°21' E 005°20'0 0.0
2017-May-21 14:45N 43°21' E 005°20'0 0.0
2017-May-21 13:49N 43°21' E 005°20'0 0.0
2017-May-21 13:29N 43°21' E 005°20'0 0.0
2017-May-21 12:47N 43°21' E 005°20'0 0.0
2017-May-21 12:29N 43°21' E 005°20'0 0.0
2017-May-20 19:09N 43°21' E 005°20'0 0.0
2017-May-20 19:00N 43°21' E 005°20'0 0.0
2017-May-20 18:15N 43°21' E 005°20'0 0.0
2017-May-20 18:00N 43°21' E 005°20'0 0.0
2017-May-20 17:30N 43°21' E 005°20'0 0.0
2017-May-20 16:56N 43°21' E 005°20'0 0.0
2017-May-20 16:26N 43°21' E 005°20'0 0.0
2017-May-20 15:41N 43°21' E 005°20'0 0.0
2017-May-20 15:29N 43°21' E 005°20'0 0.0
2017-May-20 14:44N 43°21' E 005°20'0 0.0
2017-May-20 14:29N 43°21' E 005°20'0 0.0
2017-May-20 13:26N 43°21' E 005°20'0 0.0
2017-May-20 12:56N 43°21' E 005°20'0 0.0
2017-May-20 12:26N 43°21' E 005°20'0 0.0
2017-May-20 09:50N 43°21' E 005°20'0 0.0
2017-May-20 09:20N 43°21' E 005°20'0 0.0
2017-May-20 07:35N 43°21' E 005°20'0 0.0
2017-May-20 07:23N 43°21' E 005°20'0 0.0
2017-May-20 06:53N 43°21' E 005°20'0 0.0
2017-May-20 06:23N 43°21' E 005°20'0 0.0
2017-May-20 05:53N 43°21' E 005°20'0 0.0
2017-May-20 05:20N 43°21' E 005°20'0 0.0
2017-May-20 04:53N 43°21' E 005°20'0 0.0
2017-May-20 04:26N 43°21' E 005°20'0 0.0
2017-May-20 03:56N 43°21' E 005°20'0 0.0
2017-May-20 03:26N 43°21' E 005°20'0 0.0
2017-May-20 02:56N 43°21' E 005°20'0 0.0
2017-May-20 02:23N 43°21' E 005°20'0 0.0
2017-May-20 01:59N 43°21' E 005°20'0 0.0
2017-May-20 01:29N 43°21' E 005°20'0 0.0
2017-May-20 00:56N 43°21' E 005°20'0 0.0
2017-May-20 00:29N 43°21' E 005°20'0 0.0
2017-May-19 23:44N 43°21' E 005°20'0 0.0
2017-May-19 23:14N 43°21' E 005°20'0 0.0
2017-May-19 22:56N 43°21' E 005°20'0 0.0
2017-May-19 22:29N 43°21' E 005°20'0 0.0
2017-May-19 21:47N 43°21' E 005°20'0 0.0
2017-May-19 21:29N 43°21' E 005°20'0 0.0
2017-May-19 20:59N 43°21' E 005°20'0 0.0
2017-May-19 20:29N 43°21' E 005°20'0 0.0
2017-May-19 19:59N 43°21' E 005°20'0 0.0
2017-May-19 19:20N 43°21' E 005°20'0 0.0
2017-May-19 18:50N 43°21' E 005°20'0 0.0
2017-May-19 18:20N 43°21' E 005°20'0 0.0
2017-May-19 17:53N 43°21' E 005°20'0 0.0
2017-May-19 17:23N 43°21' E 005°20'0 0.0
2017-May-19 16:53N 43°21' E 005°20'0 0.0
2017-May-19 15:53N 43°21' E 005°20'0 0.0
2017-May-19 15:23N 43°21' E 005°20'0 0.0
2017-May-19 14:56N 43°21' E 005°20'0 0.0
2017-May-19 13:56N 43°21' E 005°20'0 0.0
2017-May-19 13:26N 43°21' E 005°20'0 0.0
2017-May-19 12:41N 43°21' E 005°20'0 0.0
2017-May-19 12:26N 43°21' E 005°20'0 0.0
2017-May-19 11:59N 43°21' E 005°20'0 0.0
2017-May-19 11:29N 43°21' E 005°20'0 0.0
2017-May-19 10:59N 43°21' E 005°20'0 0.0
2017-May-19 10:29N 43°21' E 005°20'0 0.0
2017-May-19 09:59N 43°21' E 005°20'0 0.0
2017-May-19 09:29N 43°21' E 005°20'0 0.0
2017-May-19 08:59N 43°21' E 005°20'0 0.0
2017-May-19 08:29N 43°21' E 005°20'0 0.0
2017-May-19 07:59N 43°21' E 005°20'0 0.0
2017-May-19 07:29N 43°21' E 005°20'0 0.0
2017-May-19 06:47N 43°21' E 005°20'0 0.0
2017-May-19 06:29N 43°21' E 005°20'0 0.0
2017-May-19 05:59N 43°21' E 005°20'0 0.0
2017-May-19 05:20N 43°21' E 005°20'0 0.0
2017-May-19 04:50N 43°21' E 005°20'0 0.0
2017-May-19 03:50N 43°21' E 005°20'0 0.0
2017-May-19 03:20N 43°21' E 005°20'0 0.0
2017-May-19 02:53N 43°21' E 005°20'0 0.0
2017-May-19 02:20N 43°21' E 005°20'0 0.0
2017-May-19 01:53N 43°21' E 005°20'0 0.0
2017-May-19 00:50N 43°21' E 005°20'0 0.0
2017-May-19 00:26N 43°21' E 005°20'0 0.0
2017-May-18 23:56N 43°21' E 005°20'0 0.0
2017-May-18 23:26N 43°21' E 005°20'0 0.0
2017-May-18 22:56N 43°21' E 005°20'0 0.0
2017-May-18 22:11N 43°21' E 005°20'0 0.0
2017-May-18 21:59N 43°21' E 005°20'0 0.0
2017-May-18 21:29N 43°21' E 005°20'0 0.0
2017-May-18 16:17N 43°21' E 005°20'0 0.1
2017-May-18 15:47N 43°21' E 005°20'0 0.0
2017-May-18 15:29N 43°21' E 005°20'0 0.0
2017-May-18 14:47N 43°21' E 005°20'0 0.0
2017-May-18 11:53N 43°21' E 005°20'  
Track history (hours):
 
Tides and Currents Weather Stations Pressure Air Temp Water Temp Dewpoint Dewpoint Depression Visibility Wind Speed Wind Dir Waves Ship Positions

Celebrity Constellation

Last reported at 2017-May-28 10:29 UTC. Time now 2017-May-28 12:23 UTC.
Position N 41°21' E 002°11'.

Length 294 m; draft 8.3 m.

Type: Passenger vessel. MMSI: 249046000.

Date/timePositionNaut miles runAvg speedWind from/ knotsBaromVisibWave heightAir tempDewpointWater temp
2017-May-28 10:29N 41°21' E 002°11'0 0.0
2017-May-28 09:32N 41°21' E 002°11'0 0.0
2017-May-28 09:30N 41°21' E 002°11'0 0.0
2017-May-28 09:00N 41°21' E 002°11'0 0.0
2017-May-28 08:30N 41°21' E 002°11'0 0.0
2017-May-28 08:00N 41°21' E 002°11'0 0.0
2017-May-28 07:30N 41°21' E 002°11'0 0.0
2017-May-28 07:01N 41°21' E 002°11'0 0.0
2017-May-28 06:30N 41°21' E 002°11'0 0.0
2017-May-28 06:00N 41°21' E 002°11'0 0.0
2017-May-28 00:03N 41°21' E 002°11'0 0.0
2017-May-28 00:00N 41°21' E 002°11'0 0.0
2017-May-27 22:59N 41°21' E 002°11'0 0.0
2017-May-27 22:12N 41°21' E 002°11'0 0.2
2017-May-27 22:00N 41°21' E 002°11'1 3.0
2017-May-27 21:30N 41°20' E 002°10'5 9.6
2017-May-27 21:00N 41°16' E 002°14'816.1
2017-May-27 20:30N 41°16' E 002°25'815.9
2017-May-27 20:00N 41°15' E 002°35'3 6.5
2017-May-27 19:30N 41°11' E 002°35'4 8.9
2017-May-27 19:00N 41°07' E 002°33'2 4.4
2017-May-27 18:30N 41°05' E 002°34'5 9.7
2017-May-27 17:59N 41°10' E 002°34'4 7.9
2017-May-27 17:30N 41°10' E 002°29'5 9.3
2017-May-27 17:00N 41°07' E 002°24'3 6.4
2017-May-27 16:29N 41°06' E 002°20'4 7.3
2017-May-27 16:00N 41°04' E 002°16'5 9.2
2017-May-27 15:29N 41°05' E 002°22'612.5
2017-May-27 15:00N 41°07' E 002°30'1514.5
2017-May-27 14:00N 41°12' E 002°48'232.2 060 / 141019.010.8 21.019.519.0
2017-May-27 13:56N 41°13' E 002°50'615.0
2017-May-27 13:30N 41°18' E 002°44'510.1
2017-May-27 13:00N 41°17' E 002°38'4 7.8
2017-May-27 12:30N 41°17' E 002°43'2 3.4
2017-May-27 12:00N 41°19' E 002°43'3 6.6
2017-May-27 11:30N 41°17' E 002°39'1 2.0
2017-May-27 11:01N 41°17' E 002°38'0 0.2
2017-May-27 10:29N 41°17' E 002°38'1 1.3
2017-May-27 10:00N 41°17' E 002°37'5461.1
2017-May-27 10:00N 41°12' E 002°36'4 7.1 340 / 81020.0 5.4 21.018.019.0
2017-May-27 09:21N 41°16' E 002°37'0 0.7
2017-May-27 09:00N 41°16' E 002°37'0 0.8
2017-May-27 08:30N 41°16' E 002°36'0 0.9
2017-May-27 08:00N 41°15' E 002°36'1 1.3
2017-May-27 07:30N 41°15' E 002°35'1 1.6
2017-May-27 06:46N 41°14' E 002°34'1 1.7
2017-May-27 06:26N 41°14' E 002°34'0 0.9
2017-May-27 05:58N 41°13' E 002°34'0 0.7
2017-May-27 05:27N 41°14' E 002°34'1 1.5
2017-May-27 04:57N 41°14' E 002°34'1 1.6
2017-May-27 04:30N 41°14' E 002°33'3 6.1
2017-May-27 03:59N 41°12' E 002°30'3 6.5
2017-May-27 03:30N 41°10' E 002°26'3 6.7
2017-May-27 03:00N 41°08' E 002°23'4 7.3
2017-May-27 02:30N 41°06' E 002°19'3 5.4
2017-May-27 02:00N 41°04' E 002°16'5324.8
2017-May-27 02:00N 41°00' E 002°12'3 6.4 040 / 121018.0 5.4 19.017.519.0
2017-May-27 01:30N 41°03' E 002°13'3 5.3
2017-May-27 01:00N 41°01' E 002°10'3 5.2
2017-May-27 00:30N 41°00' E 002°07'2 5.0
2017-May-27 00:00N 40°59' E 002°05'3 5.3
2017-May-26 23:30N 40°57' E 002°02'4 7.5
2017-May-26 23:00N 40°55' E 001°58'4 7.3
2017-May-26 22:30N 40°59' E 001°56'714.3
2017-May-26 22:00N 41°01' E 002°05'713.1
2017-May-26 21:30N 41°03' E 002°13'5 9.1
2017-May-26 21:00N 41°06' E 002°18'4 7.8
2017-May-26 20:29N 41°09' E 002°22'5 9.9
2017-May-26 20:00N 41°14' E 002°21'4 8.9
2017-May-26 19:31N 41°17' E 002°17'3 6.2
2017-May-26 19:00N 41°18' E 002°13'612.3
2017-May-26 18:31N 41°17' E 002°21'611.9
2017-May-26 18:00N 41°16' E 002°29'917.4
2017-May-26 17:30N 41°14' E 002°40'714.2
2017-May-26 17:00N 41°14' E 002°30'1122.3
2017-May-26 16:30N 41°07' E 002°19'1019.2
2017-May-26 16:00N 41°01' E 002°09'815.5
2017-May-26 15:30N 41°04' E 002°19'1122.5
2017-May-26 15:00N 41°10' E 002°31'7 7.3
2017-May-26 14:00N 41°17' E 002°35'5368.4
2017-May-26 14:00N 41°12' E 002°36'917.9 050 / 151017.010.8 20.016.919.0
2017-May-26 13:30N 41°09' E 002°25'1121.7
2017-May-26 13:00N 40°59' E 002°19'1121.1
2017-May-26 12:30N 40°52' E 002°08'917.7
2017-May-26 12:00N 40°56' E 001°58'1121.4
2017-May-26 11:30N 41°02' E 002°10'1223.1
2017-May-26 11:00N 41°05' E 002°25'1222.9
2017-May-26 10:30N 41°07' E 002°40'1019.5
2017-May-26 10:00N 41°16' E 002°44'918.1
2017-May-26 09:30N 41°12' E 002°33'1121.7
2017-May-26 09:00N 41°02' E 002°27'1122.0
2017-May-26 08:30N 40°53' E 002°19'1021.0
2017-May-26 08:00N 40°47' E 002°08'1019.8
2017-May-26 07:30N 40°53' E 001°57'1020.2
2017-May-26 07:00N 41°01' E 002°06'816.5
2017-May-26 06:30N 41°03' E 002°16'4 7.4
2017-May-26 06:00N 41°05' E 002°20'4 7.4
2017-May-26 05:30N 41°08' E 002°24'4 7.5
2017-May-26 05:00N 41°10' E 002°28'611.8
2017-May-26 04:28N 41°13' E 002°36'5 4.5
2017-May-26 03:22N 41°17' E 002°38'4 9.9
2017-May-26 03:00N 41°15' E 002°35'3 5.9
2017-May-26 02:29N 41°13' E 002°32'4 8.9
2017-May-26 02:00N 41°10' E 002°27'51227.3
2017-May-26 02:00N 41°06' E 002°24'2 3.5 230 / 101015.0 5.4 19.017.519.0
2017-May-26 01:30N 41°06' E 002°22'5 9.4
2017-May-26 01:00N 41°04' E 002°16'510.4
2017-May-26 00:30N 41°02' E 002°10'5 9.6
2017-May-26 00:00N 40°60' E 002°04'5 9.1
2017-May-25 23:30N 40°57' E 001°60'4 7.0
2017-May-25 23:00N 40°55' E 001°56'2 4.8
2017-May-25 22:30N 40°57' E 001°57'5 9.5
2017-May-25 22:00N 40°60' E 002°02'714.0
2017-May-25 21:30N 41°02' E 002°11'714.1
2017-May-25 21:00N 41°05' E 002°19'714.6
2017-May-25 20:30N 41°11' E 002°24'611.5
2017-May-25 20:00N 41°16' E 002°27'4 8.3
2017-May-25 19:31N 41°17' E 002°33'4 7.0
2017-May-25 19:00N 41°15' E 002°29'4 8.8
2017-May-25 18:31N 41°15' E 002°23'4 8.4
2017-May-25 18:00N 41°14' E 002°17'4 7.9
2017-May-25 17:31N 41°14' E 002°12'4 8.5
2017-May-25 17:00N 41°18' E 002°10'2 4.6
2017-May-25 16:30N 41°21' E 002°10'1 1.0
2017-May-25 15:42N 41°22' E 002°11'0 0.0
2017-May-25 15:30N 41°22' E 002°11'0 0.0
2017-May-25 14:42N 41°22' E 002°11'0 0.0
2017-May-25 14:30N 41°22' E 002°11'1 0.6
2017-May-25 13:30N 41°21' E 002°10'4 7.2
2017-May-25 13:00N 41°17' E 002°11'3 5.2
2017-May-25 12:31N 41°16' E 002°14'5 9.3
2017-May-25 12:00N 41°17' E 002°20'5 9.5
2017-May-25 11:30N 41°17' E 002°27'5 9.4
2017-May-25 11:00N 41°17' E 002°33'2 4.8
2017-May-25 10:30N 41°17' E 002°36'2 3.2
2017-May-25 10:00N 41°17' E 002°38'1 2.5
2017-May-25 09:30N 41°17' E 002°40'4 7.0
2017-May-25 09:00N 41°18' E 002°44'5 9.8
2017-May-25 08:30N 41°20' E 002°50'510.2
2017-May-25 08:00N 41°21' E 002°57'510.0
2017-May-25 07:30N 41°23' E 003°03'510.2
2017-May-25 07:00N 41°25' E 003°09'510.2
2017-May-25 06:31N 41°26' E 003°16'510.0
2017-May-25 06:00N 41°27' E 003°22'5 9.8
2017-May-25 05:29N 41°30' E 003°28'510.2
2017-May-25 05:00N 41°34' E 003°32'510.1
2017-May-25 04:29N 41°38' E 003°36'6 9.8
2017-May-25 03:53N 41°43' E 003°41'15 7.7
2017-May-25 02:00N 41°54' E 003°54'4410.5 270 / 111016.010.8 19.017.518.0
2017-May-24 21:49N 42°28' E 004°32'4 9.3
2017-May-24 21:24N 42°31' E 004°35'4 9.4
2017-May-24 21:00N 42°34' E 004°38'5 9.3
2017-May-24 20:29N 42°37' E 004°43'5 9.5
2017-May-24 20:00N 42°41' E 004°47'5 9.6
2017-May-24 19:29N 42°45' E 004°51'5 9.5
2017-May-24 19:00N 42°48' E 004°56'5 9.3
2017-May-24 18:30N 42°51' E 004°60'3 5.4
2017-May-24 17:57N 42°54' E 005°03'2 3.9
2017-May-24 17:30N 42°55' E 005°04'510.2
2017-May-24 17:00N 42°59' E 005°08'612.1
2017-May-24 16:30N 43°05' E 005°09'611.4
2017-May-24 16:01N 43°11' E 005°09'611.1
2017-May-24 15:31N 43°16' E 005°10'3 6.4
2017-May-24 15:01N 43°18' E 005°13'1 2.3
2017-May-24 14:31N 43°19' E 005°15'4 0.2
2017-May-23 17:45N 43°21' E 005°20'0 0.0
2017-May-23 11:03N 43°21' E 005°20'0 0.0
2017-May-23 10:39N 43°21' E 005°20'0 0.0
2017-May-23 05:39N 43°21' E 005°20'0 0.0
2017-May-23 05:15N 43°21' E 005°20'0 0.0
2017-May-22 23:51N 43°21' E 005°20'0 0.0
2017-May-22 21:03N 43°21' E 005°20'0 0.0
2017-May-22 20:39N 43°21' E 005°20'0 0.0
2017-May-22 18:51N 43°21' E 005°20'0 0.0
2017-May-22 18:27N 43°21' E 005°20'0 0.0
2017-May-22 17:51N 43°21' E 005°20'0 0.0
2017-May-22 16:39N 43°21' E 005°20'0 0.0
2017-May-22 16:27N 43°21' E 005°20'0 0.0
2017-May-22 15:45N 43°21' E 005°20'0 0.0
2017-May-22 15:30N 43°21' E 005°20'0 0.0
2017-May-22 15:00N 43°21' E 005°20'0 0.0
2017-May-22 13:57N 43°21' E 005°20'0 0.0
2017-May-22 13:03N 43°21' E 005°20'0 0.0
2017-May-22 13:00N 43°21' E 005°20'0 0.0
2017-May-22 12:00N 43°21' E 005°20'0 0.0
2017-May-22 11:30N 43°21' E 005°20'0 0.0
2017-May-22 11:00N 43°21' E 005°20'0 0.0
2017-May-22 10:18N 43°21' E 005°20'0 0.0
2017-May-22 09:33N 43°21' E 005°20'0 0.0
2017-May-22 09:30N 43°21' E 005°20'0 0.0
2017-May-22 08:51N 43°21' E 005°20'0 0.0
2017-May-22 08:21N 43°21' E 005°20'0 0.0
2017-May-22 07:54N 43°21' E 005°20'0 0.0
2017-May-22 06:39N 43°21' E 005°20'0 0.0
2017-May-22 06:24N 43°21' E 005°20'0 0.0
2017-May-22 05:31N 43°21' E 005°20'0 0.0
2017-May-22 05:01N 43°21' E 005°20'0 0.0
2017-May-22 04:46N 43°21' E 005°20'0 0.0
2017-May-22 04:19N 43°21' E 005°20'0 0.0
2017-May-22 03:52N 43°21' E 005°20'0 0.0
2017-May-22 03:22N 43°21' E 005°20'0 0.0
2017-May-22 02:52N 43°21' E 005°20'0 0.0
2017-May-22 02:22N 43°21' E 005°20'0 0.0
2017-May-22 01:52N 43°21' E 005°20'0 0.0
2017-May-22 01:25N 43°21' E 005°20'0 0.0
2017-May-22 00:55N 43°21' E 005°20'0 0.0
2017-May-22 00:25N 43°21' E 005°20'0 0.0
2017-May-21 21:37N 43°21' E 005°20'0 0.0
2017-May-21 21:13N 43°21' E 005°20'0 0.0
2017-May-21 20:10N 43°21' E 005°20'0 0.0
2017-May-21 19:15N 43°21' E 005°20'0 0.0
2017-May-21 18:57N 43°21' E 005°20'0 0.0
2017-May-21 18:27N 43°21' E 005°20'0 0.0
2017-May-21 17:57N 43°21' E 005°20'0 0.0
2017-May-21 17:30N 43°21' E 005°20'0 0.0
2017-May-21 16:33N 43°21' E 005°20'0 0.0
2017-May-21 16:27N 43°21' E 005°20'0 0.0
2017-May-21 15:57N 43°21' E 005°20'0 0.0
2017-May-21 15:15N 43°21' E 005°20'0 0.0
2017-May-21 14:45N 43°21' E 005°20'0 0.0
2017-May-21 13:49N 43°21' E 005°20'0 0.0
2017-May-21 13:29N 43°21' E 005°20'0 0.0
2017-May-21 12:47N 43°21' E 005°20'0 0.0
2017-May-21 12:29N 43°21' E 005°20'0 0.0
2017-May-20 19:09N 43°21' E 005°20'0 0.0
2017-May-20 19:00N 43°21' E 005°20'0 0.0
2017-May-20 18:15N 43°21' E 005°20'0 0.0
2017-May-20 18:00N 43°21' E 005°20'0 0.0
2017-May-20 17:30N 43°21' E 005°20'0 0.0
2017-May-20 16:56N 43°21' E 005°20'0 0.0
2017-May-20 16:26N 43°21' E 005°20'0 0.0
2017-May-20 15:41N 43°21' E 005°20'0 0.0
2017-May-20 15:29N 43°21' E 005°20'0 0.0
2017-May-20 14:44N 43°21' E 005°20'0 0.0
2017-May-20 14:29N 43°21' E 005°20'0 0.0
2017-May-20 13:26N 43°21' E 005°20'0 0.0
2017-May-20 12:56N 43°21' E 005°20'0 0.0
2017-May-20 12:26N 43°21' E 005°20'0 0.0
2017-May-20 09:50N 43°21' E 005°20'0 0.0
2017-May-20 09:20N 43°21' E 005°20'0 0.0
2017-May-20 07:35N 43°21' E 005°20'0 0.0
2017-May-20 07:23N 43°21' E 005°20'0 0.0
2017-May-20 06:53N 43°21' E 005°20'0 0.0
2017-May-20 06:23N 43°21' E 005°20'0 0.0
2017-May-20 05:53N 43°21' E 005°20'0 0.0
2017-May-20 05:20N 43°21' E 005°20'0 0.0
2017-May-20 04:53N 43°21' E 005°20'0 0.0
2017-May-20 04:26N 43°21' E 005°20'0 0.0
2017-May-20 03:56N 43°21' E 005°20'0 0.0
2017-May-20 03:26N 43°21' E 005°20'0 0.0
2017-May-20 02:56N 43°21' E 005°20'0 0.0
2017-May-20 02:23N 43°21' E 005°20'0 0.0
2017-May-20 01:59N 43°21' E 005°20'0 0.0
2017-May-20 01:29N 43°21' E 005°20'0 0.0
2017-May-20 00:56N 43°21' E 005°20'0 0.0
2017-May-20 00:29N 43°21' E 005°20'0 0.0
2017-May-19 23:44N 43°21' E 005°20'0 0.0
2017-May-19 23:14N 43°21' E 005°20'0 0.0
2017-May-19 22:56N 43°21' E 005°20'0 0.0
2017-May-19 22:29N 43°21' E 005°20'0 0.0
2017-May-19 21:47N 43°21' E 005°20'0 0.0
2017-May-19 21:29N 43°21' E 005°20'0 0.0
2017-May-19 20:59N 43°21' E 005°20'0 0.0
2017-May-19 20:29N 43°21' E 005°20'0 0.0
2017-May-19 19:59N 43°21' E 005°20'0 0.0
2017-May-19 19:20N 43°21' E 005°20'0 0.0
2017-May-19 18:50N 43°21' E 005°20'0 0.0
2017-May-19 18:20N 43°21' E 005°20'0 0.0
2017-May-19 17:53N 43°21' E 005°20'0 0.0
2017-May-19 17:23N 43°21' E 005°20'0 0.0
2017-May-19 16:53N 43°21' E 005°20'0 0.0
2017-May-19 15:53N 43°21' E 005°20'0 0.0
2017-May-19 15:23N 43°21' E 005°20'0 0.0
2017-May-19 14:56N 43°21' E 005°20'0 0.0
2017-May-19 13:56N 43°21' E 005°20'0 0.0
2017-May-19 13:26N 43°21' E 005°20'0 0.0
2017-May-19 12:41N 43°21' E 005°20'0 0.0
2017-May-19 12:26N 43°21' E 005°20'0 0.0
2017-May-19 11:59N 43°21' E 005°20'0 0.0
2017-May-19 11:29N 43°21' E 005°20'0 0.0
2017-May-19 10:59N 43°21' E 005°20'0 0.0
2017-May-19 10:29N 43°21' E 005°20'0 0.0
2017-May-19 09:59N 43°21' E 005°20'0 0.0
2017-May-19 09:29N 43°21' E 005°20'0 0.0
2017-May-19 08:59N 43°21' E 005°20'0 0.0
2017-May-19 08:29N 43°21' E 005°20'0 0.0
2017-May-19 07:59N 43°21' E 005°20'0 0.0
2017-May-19 07:29N 43°21' E 005°20'0 0.0
2017-May-19 06:47N 43°21' E 005°20'0 0.0
2017-May-19 06:29N 43°21' E 005°20'0 0.0
2017-May-19 05:59N 43°21' E 005°20'0 0.0
2017-May-19 05:20N 43°21' E 005°20'0 0.0
2017-May-19 04:50N 43°21' E 005°20'0 0.0
2017-May-19 03:50N 43°21' E 005°20'0 0.0
2017-May-19 03:20N 43°21' E 005°20'0 0.0
2017-May-19 02:53N 43°21' E 005°20'0 0.0
2017-May-19 02:20N 43°21' E 005°20'0 0.0
2017-May-19 01:53N 43°21' E 005°20'0 0.0
2017-May-19 00:50N 43°21' E 005°20'0 0.0
2017-May-19 00:26N 43°21' E 005°20'0 0.0
2017-May-18 23:56N 43°21' E 005°20'0 0.0
2017-May-18 23:26N 43°21' E 005°20'0 0.0
2017-May-18 22:56N 43°21' E 005°20'0 0.0
2017-May-18 22:11N 43°21' E 005°20'0 0.0
2017-May-18 21:59N 43°21' E 005°20'0 0.0
2017-May-18 21:29N 43°21' E 005°20'0 0.0
2017-May-18 16:17N 43°21' E 005°20'0 0.1
2017-May-18 15:47N 43°21' E 005°20'0 0.0
2017-May-18 15:29N 43°21' E 005°20'0 0.0
2017-May-18 14:47N 43°21' E 005°20'0 0.0
2017-May-18 11:53N 43°21' E 005°20'  

Dump ship's entire track history